sensor_id;sensor_type;location;lat;lon;timestamp;pressure;altitude;pressure_sealevel;temperature
33267;BMP180;19638;49.080;11.896;2022-12-07T00:00:31;96134.00;;;4.10
33267;BMP180;19638;49.080;11.896;2022-12-07T00:04:34;96129.00;;;4.10
33267;BMP180;19638;49.080;11.896;2022-12-07T00:08:38;96128.00;;;4.10
33267;BMP180;19638;49.080;11.896;2022-12-07T00:12:42;96129.00;;;4.10
33267;BMP180;19638;49.080;11.896;2022-12-07T00:16:45;96123.00;;;4.00
33267;BMP180;19638;49.080;11.896;2022-12-07T00:20:48;96116.00;;;4.00
33267;BMP180;19638;49.080;11.896;2022-12-07T00:24:51;96116.00;;;4.00
33267;BMP180;19638;49.080;11.896;2022-12-07T00:29:30;96112.00;;;4.00
33267;BMP180;19638;49.080;11.896;2022-12-07T00:33:33;96107.00;;;4.00
33267;BMP180;19638;49.080;11.896;2022-12-07T00:37:36;96120.00;;;4.00
33267;BMP180;19638;49.080;11.896;2022-12-07T00:41:39;96114.00;;;4.00
33267;BMP180;19638;49.080;11.896;2022-12-07T00:45:44;96111.00;;;4.00
33267;BMP180;19638;49.080;11.896;2022-12-07T00:49:47;96113.00;;;4.00
33267;BMP180;19638;49.080;11.896;2022-12-07T00:53:51;96111.00;;;4.00
33267;BMP180;19638;49.080;11.896;2022-12-07T00:57:54;96109.00;;;4.00
33267;BMP180;19638;49.080;11.896;2022-12-07T01:01:58;96112.00;;;4.00
33267;BMP180;19638;49.080;11.896;2022-12-07T01:06:01;96110.00;;;4.00
33267;BMP180;19638;49.080;11.896;2022-12-07T01:14:42;96113.00;;;4.00
33267;BMP180;19638;49.080;11.896;2022-12-07T01:18:48;96120.00;;;4.00
33267;BMP180;19638;49.080;11.896;2022-12-07T01:22:51;96126.00;;;3.90
33267;BMP180;19638;49.080;11.896;2022-12-07T01:26:54;96127.00;;;4.00
33267;BMP180;19638;49.080;11.896;2022-12-07T01:30:58;96123.00;;;3.90
33267;BMP180;19638;49.080;11.896;2022-12-07T01:35:03;96128.00;;;3.90
33267;BMP180;19638;49.080;11.896;2022-12-07T01:39:08;96125.00;;;3.90
33267;BMP180;19638;49.080;11.896;2022-12-07T01:47:49;96123.00;;;3.80
33267;BMP180;19638;49.080;11.896;2022-12-07T01:51:58;96129.00;;;3.80
33267;BMP180;19638;49.080;11.896;2022-12-07T01:56:03;96116.00;;;3.90
33267;BMP180;19638;49.080;11.896;2022-12-07T02:00:09;96117.00;;;3.90
33267;BMP180;19638;49.080;11.896;2022-12-07T02:04:13;96120.00;;;3.90
33267;BMP180;19638;49.080;11.896;2022-12-07T02:08:18;96118.00;;;3.80
33267;BMP180;19638;49.080;11.896;2022-12-07T02:12:22;96120.00;;;3.90
33267;BMP180;19638;49.080;11.896;2022-12-07T02:16:32;96117.00;;;3.90
33267;BMP180;19638;49.080;11.896;2022-12-07T02:21:03;96113.00;;;3.90
33267;BMP180;19638;49.080;11.896;2022-12-07T02:25:19;96112.00;;;3.90
33267;BMP180;19638;49.080;11.896;2022-12-07T02:29:28;96114.00;;;3.80
33267;BMP180;19638;49.080;11.896;2022-12-07T02:38:08;96106.00;;;3.70
33267;BMP180;19638;49.080;11.896;2022-12-07T02:42:19;96111.00;;;3.60
33267;BMP180;19638;49.080;11.896;2022-12-07T02:46:34;96111.00;;;3.60
33267;BMP180;19638;49.080;11.896;2022-12-07T02:50:38;96109.00;;;3.60
33267;BMP180;19638;49.080;11.896;2022-12-07T02:54:42;96112.00;;;3.60
33267;BMP180;19638;49.080;11.896;2022-12-07T02:58:54;96109.00;;;3.60
33267;BMP180;19638;49.080;11.896;2022-12-07T03:03:07;96100.00;;;3.60
33267;BMP180;19638;49.080;11.896;2022-12-07T03:07:23;96108.00;;;3.50
33267;BMP180;19638;49.080;11.896;2022-12-07T03:11:33;96103.00;;;3.50
33267;BMP180;19638;49.080;11.896;2022-12-07T03:15:43;96093.00;;;3.50
33267;BMP180;19638;49.080;11.896;2022-12-07T03:19:53;96094.00;;;3.50
33267;BMP180;19638;49.080;11.896;2022-12-07T03:24:00;96090.00;;;3.50
33267;BMP180;19638;49.080;11.896;2022-12-07T03:28:06;96098.00;;;3.60
33267;BMP180;19638;49.080;11.896;2022-12-07T03:32:14;96091.00;;;3.60
33267;BMP180;19638;49.080;11.896;2022-12-07T03:36:24;96081.00;;;3.60
33267;BMP180;19638;49.080;11.896;2022-12-07T03:40:35;96070.00;;;3.70
33267;BMP180;19638;49.080;11.896;2022-12-07T03:44:40;96081.00;;;3.70
33267;BMP180;19638;49.080;11.896;2022-12-07T03:48:50;96084.00;;;3.70
33267;BMP180;19638;49.080;11.896;2022-12-07T03:53:03;96089.00;;;3.70
33267;BMP180;19638;49.080;11.896;2022-12-07T03:57:08;96091.00;;;3.70
33267;BMP180;19638;49.080;11.896;2022-12-07T04:01:11;96092.00;;;3.70
33267;BMP180;19638;49.080;11.896;2022-12-07T04:05:15;96082.00;;;3.70
33267;BMP180;19638;49.080;11.896;2022-12-07T04:09:20;96091.00;;;3.70
33267;BMP180;19638;49.080;11.896;2022-12-07T04:13:23;96092.00;;;3.60
33267;BMP180;19638;49.080;11.896;2022-12-07T04:17:26;96088.00;;;3.70
33267;BMP180;19638;49.080;11.896;2022-12-07T04:21:29;96091.00;;;3.70
33267;BMP180;19638;49.080;11.896;2022-12-07T04:25:34;96089.00;;;3.70
33267;BMP180;19638;49.080;11.896;2022-12-07T04:29:37;96082.00;;;3.70
33267;BMP180;19638;49.080;11.896;2022-12-07T04:33:40;96081.00;;;3.70
33267;BMP180;19638;49.080;11.896;2022-12-07T04:37:43;96078.00;;;3.80
33267;BMP180;19638;49.080;11.896;2022-12-07T04:41:48;96066.00;;;3.70
33267;BMP180;19638;49.080;11.896;2022-12-07T04:45:51;96066.00;;;3.70
33267;BMP180;19638;49.080;11.896;2022-12-07T04:49:54;96061.00;;;3.60
33267;BMP180;19638;49.080;11.896;2022-12-07T04:53:58;96052.00;;;3.40
33267;BMP180;19638;49.080;11.896;2022-12-07T04:58:02;96054.00;;;3.30
33267;BMP180;19638;49.080;11.896;2022-12-07T05:02:05;96043.00;;;3.10
33267;BMP180;19638;49.080;11.896;2022-12-07T05:06:09;96036.00;;;2.90
33267;BMP180;19638;49.080;11.896;2022-12-07T05:10:14;96040.00;;;2.80
33267;BMP180;19638;49.080;11.896;2022-12-07T05:14:19;96038.00;;;2.70
33267;BMP180;19638;49.080;11.896;2022-12-07T05:18:23;96023.00;;;2.50
33267;BMP180;19638;49.080;11.896;2022-12-07T05:22:26;96028.00;;;2.40
33267;BMP180;19638;49.080;11.896;2022-12-07T05:26:30;96020.00;;;2.40
33267;BMP180;19638;49.080;11.896;2022-12-07T05:30:34;96023.00;;;2.30
33267;BMP180;19638;49.080;11.896;2022-12-07T05:34:38;96026.00;;;2.20
33267;BMP180;19638;49.080;11.896;2022-12-07T05:38:41;96029.00;;;2.20
33267;BMP180;19638;49.080;11.896;2022-12-07T05:42:44;96041.00;;;2.20
33267;BMP180;19638;49.080;11.896;2022-12-07T05:46:49;96046.00;;;2.10
33267;BMP180;19638;49.080;11.896;2022-12-07T05:50:52;96050.00;;;2.10
33267;BMP180;19638;49.080;11.896;2022-12-07T05:54:55;96054.00;;;2.20
33267;BMP180;19638;49.080;11.896;2022-12-07T05:58:58;96060.00;;;2.20
33267;BMP180;19638;49.080;11.896;2022-12-07T06:03:21;96053.00;;;2.20
33267;BMP180;19638;49.080;11.896;2022-12-07T06:07:24;96067.00;;;2.20
33267;BMP180;19638;49.080;11.896;2022-12-07T06:11:27;96065.00;;;2.20
33267;BMP180;19638;49.080;11.896;2022-12-07T06:15:47;96059.00;;;2.20
33267;BMP180;19638;49.080;11.896;2022-12-07T06:19:52;96076.00;;;2.20
33267;BMP180;19638;49.080;11.896;2022-12-07T06:23:55;96057.00;;;2.20
33267;BMP180;19638;49.080;11.896;2022-12-07T06:27:58;96069.00;;;2.30
33267;BMP180;19638;49.080;11.896;2022-12-07T06:32:02;96063.00;;;2.30
33267;BMP180;19638;49.080;11.896;2022-12-07T06:36:07;96061.00;;;2.30
33267;BMP180;19638;49.080;11.896;2022-12-07T06:40:11;96055.00;;;2.30
33267;BMP180;19638;49.080;11.896;2022-12-07T06:44:14;96062.00;;;2.30
33267;BMP180;19638;49.080;11.896;2022-12-07T06:48:17;96068.00;;;2.40
33267;BMP180;19638;49.080;11.896;2022-12-07T06:52:22;96068.00;;;2.50
33267;BMP180;19638;49.080;11.896;2022-12-07T06:56:25;96074.00;;;2.60
33267;BMP180;19638;49.080;11.896;2022-12-07T07:00:28;96072.00;;;2.60
33267;BMP180;19638;49.080;11.896;2022-12-07T07:04:31;96076.00;;;2.60
33267;BMP180;19638;49.080;11.896;2022-12-07T07:08:36;96071.00;;;2.60
33267;BMP180;19638;49.080;11.896;2022-12-07T07:12:43;96065.00;;;2.60
33267;BMP180;19638;49.080;11.896;2022-12-07T07:16:58;96067.00;;;2.60
33267;BMP180;19638;49.080;11.896;2022-12-07T07:21:01;96060.00;;;2.60
33267;BMP180;19638;49.080;11.896;2022-12-07T07:25:07;96063.00;;;2.60
33267;BMP180;19638;49.080;11.896;2022-12-07T07:29:10;96062.00;;;2.70
33267;BMP180;19638;49.080;11.896;2022-12-07T07:33:13;96064.00;;;2.70
33267;BMP180;19638;49.080;11.896;2022-12-07T07:37:16;96052.00;;;2.70
33267;BMP180;19638;49.080;11.896;2022-12-07T07:41:24;96074.00;;;2.80
33267;BMP180;19638;49.080;11.896;2022-12-07T07:45:27;96074.00;;;2.90
33267;BMP180;19638;49.080;11.896;2022-12-07T07:49:30;96075.00;;;3.00
33267;BMP180;19638;49.080;11.896;2022-12-07T07:53:33;96076.00;;;3.00
33267;BMP180;19638;49.080;11.896;2022-12-07T07:57:39;96087.00;;;3.10
33267;BMP180;19638;49.080;11.896;2022-12-07T08:01:42;96090.00;;;3.10
33267;BMP180;19638;49.080;11.896;2022-12-07T08:05:45;96086.00;;;3.20
33267;BMP180;19638;49.080;11.896;2022-12-07T08:09:48;96091.00;;;3.20
33267;BMP180;19638;49.080;11.896;2022-12-07T08:13:53;96084.00;;;3.30
33267;BMP180;19638;49.080;11.896;2022-12-07T08:17:56;96090.00;;;3.30
33267;BMP180;19638;49.080;11.896;2022-12-07T08:21:59;96099.00;;;3.30
33267;BMP180;19638;49.080;11.896;2022-12-07T08:26:03;96103.00;;;3.30
33267;BMP180;19638;49.080;11.896;2022-12-07T08:30:08;96107.00;;;3.40
33267;BMP180;19638;49.080;11.896;2022-12-07T08:34:12;96106.00;;;3.40
33267;BMP180;19638;49.080;11.896;2022-12-07T08:38:15;96104.00;;;3.40
33267;BMP180;19638;49.080;11.896;2022-12-07T08:42:18;96115.00;;;3.50
33267;BMP180;19638;49.080;11.896;2022-12-07T08:46:28;96125.00;;;3.50
33267;BMP180;19638;49.080;11.896;2022-12-07T08:50:36;96121.00;;;3.60
33267;BMP180;19638;49.080;11.896;2022-12-07T08:54:48;96123.00;;;3.60
33267;BMP180;19638;49.080;11.896;2022-12-07T08:58:52;96131.00;;;3.70
33267;BMP180;19638;49.080;11.896;2022-12-07T09:02:56;96132.00;;;3.70
33267;BMP180;19638;49.080;11.896;2022-12-07T09:06:59;96136.00;;;3.80
33267;BMP180;19638;49.080;11.896;2022-12-07T09:11:03;96130.00;;;3.90
33267;BMP180;19638;49.080;11.896;2022-12-07T09:15:07;96134.00;;;4.00
33267;BMP180;19638;49.080;11.896;2022-12-07T09:19:12;96134.00;;;4.10
33267;BMP180;19638;49.080;11.896;2022-12-07T09:23:15;96136.00;;;4.20
33267;BMP180;19638;49.080;11.896;2022-12-07T09:27:18;96138.00;;;4.20
33267;BMP180;19638;49.080;11.896;2022-12-07T09:31:21;96124.00;;;4.20
33267;BMP180;19638;49.080;11.896;2022-12-07T09:35:28;96119.00;;;4.30
33267;BMP180;19638;49.080;11.896;2022-12-07T09:39:31;96118.00;;;4.30
33267;BMP180;19638;49.080;11.896;2022-12-07T09:43:36;96125.00;;;4.50
33267;BMP180;19638;49.080;11.896;2022-12-07T09:47:42;96126.00;;;4.60
33267;BMP180;19638;49.080;11.896;2022-12-07T09:51:46;96122.00;;;4.70
33267;BMP180;19638;49.080;11.896;2022-12-07T09:55:50;96120.00;;;4.80
33267;BMP180;19638;49.080;11.896;2022-12-07T09:59:54;96122.00;;;4.90
33267;BMP180;19638;49.080;11.896;2022-12-07T10:04:02;96119.00;;;5.00
33267;BMP180;19638;49.080;11.896;2022-12-07T10:08:11;96111.00;;;5.10
33267;BMP180;19638;49.080;11.896;2022-12-07T10:12:14;96097.00;;;5.10
33267;BMP180;19638;49.080;11.896;2022-12-07T10:16:37;96093.00;;;5.10
33267;BMP180;19638;49.080;11.896;2022-12-07T10:20:40;96098.00;;;5.10
33267;BMP180;19638;49.080;11.896;2022-12-07T10:24:46;96085.00;;;5.20
33267;BMP180;19638;49.080;11.896;2022-12-07T10:28:50;96086.00;;;5.30
33267;BMP180;19638;49.080;11.896;2022-12-07T10:32:53;96078.00;;;5.40
33267;BMP180;19638;49.080;11.896;2022-12-07T10:37:27;96080.00;;;5.50
33267;BMP180;19638;49.080;11.896;2022-12-07T10:41:31;96082.00;;;5.60
33267;BMP180;19638;49.080;11.896;2022-12-07T10:45:42;96081.00;;;5.60
33267;BMP180;19638;49.080;11.896;2022-12-07T10:50:37;96077.00;;;5.60
33267;BMP180;19638;49.080;11.896;2022-12-07T10:54:51;96069.00;;;5.70
33267;BMP180;19638;49.080;11.896;2022-12-07T10:59:14;96069.00;;;5.90
33267;BMP180;19638;49.080;11.896;2022-12-07T11:08:23;96069.00;;;5.90
33267;BMP180;19638;49.080;11.896;2022-12-07T11:17:35;96066.00;;;6.00
33267;BMP180;19638;49.080;11.896;2022-12-07T11:21:45;96047.00;;;6.00
33267;BMP180;19638;49.080;11.896;2022-12-07T11:25:56;96043.00;;;6.10
33267;BMP180;19638;49.080;11.896;2022-12-07T11:30:10;96042.00;;;6.10
33267;BMP180;19638;49.080;11.896;2022-12-07T11:34:39;96047.00;;;6.10
33267;BMP180;19638;49.080;11.896;2022-12-07T11:38:49;96044.00;;;6.00
33267;BMP180;19638;49.080;11.896;2022-12-07T11:43:22;96043.00;;;5.90
33267;BMP180;19638;49.080;11.896;2022-12-07T11:47:32;96037.00;;;5.90
33267;BMP180;19638;49.080;11.896;2022-12-07T11:52:04;96040.00;;;5.90
33267;BMP180;19638;49.080;11.896;2022-12-07T11:56:11;96035.00;;;5.80
33267;BMP180;19638;49.080;11.896;2022-12-07T12:00:43;96033.00;;;5.80
33267;BMP180;19638;49.080;11.896;2022-12-07T12:05:21;96028.00;;;5.70
33267;BMP180;19638;49.080;11.896;2022-12-07T12:09:29;96021.00;;;5.50
33267;BMP180;19638;49.080;11.896;2022-12-07T12:14:07;96012.00;;;5.20
33267;BMP180;19638;49.080;11.896;2022-12-07T12:18:43;96017.00;;;5.10
33267;BMP180;19638;49.080;11.896;2022-12-07T12:23:11;96007.00;;;5.10
33267;BMP180;19638;49.080;11.896;2022-12-07T12:27:20;96003.00;;;5.20
33267;BMP180;19638;49.080;11.896;2022-12-07T12:31:37;96007.00;;;5.20
33267;BMP180;19638;49.080;11.896;2022-12-07T12:36:19;96004.00;;;5.30
33267;BMP180;19638;49.080;11.896;2022-12-07T12:40:44;96002.00;;;5.40
33267;BMP180;19638;49.080;11.896;2022-12-07T12:49:43;96009.00;;;5.60
33267;BMP180;19638;49.080;11.896;2022-12-07T12:53:46;96006.00;;;5.60
33267;BMP180;19638;49.080;11.896;2022-12-07T13:02:31;95990.00;;;5.70
33267;BMP180;19638;49.080;11.896;2022-12-07T13:07:11;95998.00;;;5.50
33267;BMP180;19638;49.080;11.896;2022-12-07T13:11:18;95991.00;;;5.50
33267;BMP180;19638;49.080;11.896;2022-12-07T13:15:34;95991.00;;;5.60
33267;BMP180;19638;49.080;11.896;2022-12-07T13:19:56;95976.00;;;5.60
33267;BMP180;19638;49.080;11.896;2022-12-07T13:24:07;95989.00;;;5.60
33267;BMP180;19638;49.080;11.896;2022-12-07T13:28:15;95982.00;;;5.70
33267;BMP180;19638;49.080;11.896;2022-12-07T13:32:23;95983.00;;;5.60
33267;BMP180;19638;49.080;11.896;2022-12-07T13:36:30;95981.00;;;5.70
33267;BMP180;19638;49.080;11.896;2022-12-07T13:41:05;95976.00;;;5.70
33267;BMP180;19638;49.080;11.896;2022-12-07T13:45:20;95975.00;;;5.70
33267;BMP180;19638;49.080;11.896;2022-12-07T13:49:47;95982.00;;;5.70
33267;BMP180;19638;49.080;11.896;2022-12-07T13:53:59;95987.00;;;5.70
33267;BMP180;19638;49.080;11.896;2022-12-07T13:58:31;95990.00;;;5.70
33267;BMP180;19638;49.080;11.896;2022-12-07T14:02:35;95976.00;;;5.70
33267;BMP180;19638;49.080;11.896;2022-12-07T14:06:50;95979.00;;;5.70
33267;BMP180;19638;49.080;11.896;2022-12-07T14:11:28;95984.00;;;5.70
33267;BMP180;19638;49.080;11.896;2022-12-07T14:15:34;95980.00;;;5.70
33267;BMP180;19638;49.080;11.896;2022-12-07T14:24:26;95964.00;;;5.60
33267;BMP180;19638;49.080;11.896;2022-12-07T14:33:09;95971.00;;;5.50
33267;BMP180;19638;49.080;11.896;2022-12-07T14:41:43;95978.00;;;5.50
33267;BMP180;19638;49.080;11.896;2022-12-07T14:45:55;95980.00;;;5.50
33267;BMP180;19638;49.080;11.896;2022-12-07T14:50:35;95971.00;;;5.30
33267;BMP180;19638;49.080;11.896;2022-12-07T14:54:39;95965.00;;;5.30
33267;BMP180;19638;49.080;11.896;2022-12-07T14:58:43;95962.00;;;5.30
33267;BMP180;19638;49.080;11.896;2022-12-07T15:03:20;95962.00;;;5.30
33267;BMP180;19638;49.080;11.896;2022-12-07T15:07:25;95958.00;;;5.30
33267;BMP180;19638;49.080;11.896;2022-12-07T15:11:58;95956.00;;;5.20
33267;BMP180;19638;49.080;11.896;2022-12-07T15:16:02;95958.00;;;5.20
33267;BMP180;19638;49.080;11.896;2022-12-07T15:20:07;95953.00;;;5.20
33267;BMP180;19638;49.080;11.896;2022-12-07T15:24:12;95948.00;;;5.20
33267;BMP180;19638;49.080;11.896;2022-12-07T15:28:15;95959.00;;;5.20
33267;BMP180;19638;49.080;11.896;2022-12-07T15:32:19;95956.00;;;5.10
33267;BMP180;19638;49.080;11.896;2022-12-07T15:36:53;95963.00;;;5.10
33267;BMP180;19638;49.080;11.896;2022-12-07T15:40:57;95964.00;;;5.10
33267;BMP180;19638;49.080;11.896;2022-12-07T15:45:00;95955.00;;;5.00
33267;BMP180;19638;49.080;11.896;2022-12-07T15:49:35;95955.00;;;4.90
33267;BMP180;19638;49.080;11.896;2022-12-07T15:53:38;95954.00;;;4.90
33267;BMP180;19638;49.080;11.896;2022-12-07T15:57:43;95955.00;;;4.90
33267;BMP180;19638;49.080;11.896;2022-12-07T16:06:19;95942.00;;;4.80
33267;BMP180;19638;49.080;11.896;2022-12-07T16:10:22;95952.00;;;4.80
33267;BMP180;19638;49.080;11.896;2022-12-07T16:14:27;95952.00;;;4.80
33267;BMP180;19638;49.080;11.896;2022-12-07T16:18:30;95948.00;;;4.80
33267;BMP180;19638;49.080;11.896;2022-12-07T16:22:33;95937.00;;;4.60
33267;BMP180;19638;49.080;11.896;2022-12-07T16:26:36;95953.00;;;4.50
33267;BMP180;19638;49.080;11.896;2022-12-07T16:30:41;95945.00;;;4.40
33267;BMP180;19638;49.080;11.896;2022-12-07T16:34:44;95941.00;;;4.30
33267;BMP180;19638;49.080;11.896;2022-12-07T16:38:47;95934.00;;;4.20
33267;BMP180;19638;49.080;11.896;2022-12-07T16:42:52;95933.00;;;4.20
33267;BMP180;19638;49.080;11.896;2022-12-07T16:46:57;95933.00;;;4.20
33267;BMP180;19638;49.080;11.896;2022-12-07T16:51:35;95931.00;;;4.10
33267;BMP180;19638;49.080;11.896;2022-12-07T16:55:39;95939.00;;;4.20
33267;BMP180;19638;49.080;11.896;2022-12-07T16:59:42;95930.00;;;4.20
33267;BMP180;19638;49.080;11.896;2022-12-07T17:04:20;95931.00;;;4.10
33267;BMP180;19638;49.080;11.896;2022-12-07T17:12:57;95927.00;;;4.10
33267;BMP180;19638;49.080;11.896;2022-12-07T17:21:39;95925.00;;;4.20
33267;BMP180;19638;49.080;11.896;2022-12-07T17:26:14;95921.00;;;4.20
33267;BMP180;19638;49.080;11.896;2022-12-07T17:34:51;95916.00;;;4.10
33267;BMP180;19638;49.080;11.896;2022-12-07T17:38:56;95918.00;;;4.10
33267;BMP180;19638;49.080;11.896;2022-12-07T17:43:30;95916.00;;;4.10
33267;BMP180;19638;49.080;11.896;2022-12-07T17:47:33;95918.00;;;4.20
33267;BMP180;19638;49.080;11.896;2022-12-07T17:56:32;95918.00;;;4.10
33267;BMP180;19638;49.080;11.896;2022-12-07T18:01:07;95918.00;;;4.10
33267;BMP180;19638;49.080;11.896;2022-12-07T18:05:44;95916.00;;;4.10
33267;BMP180;19638;49.080;11.896;2022-12-07T18:10:20;95908.00;;;4.10
33267;BMP180;19638;49.080;11.896;2022-12-07T18:14:58;95906.00;;;4.10
33267;BMP180;19638;49.080;11.896;2022-12-07T18:24:09;95912.00;;;4.10
33267;BMP180;19638;49.080;11.896;2022-12-07T18:28:43;95903.00;;;4.20
33267;BMP180;19638;49.080;11.896;2022-12-07T18:37:22;95900.00;;;4.20
33267;BMP180;19638;49.080;11.896;2022-12-07T18:41:28;95916.00;;;4.30
33267;BMP180;19638;49.080;11.896;2022-12-07T18:45:34;95919.00;;;4.30
33267;BMP180;19638;49.080;11.896;2022-12-07T18:50:08;95924.00;;;4.20
33267;BMP180;19638;49.080;11.896;2022-12-07T18:54:47;95922.00;;;4.20
33267;BMP180;19638;49.080;11.896;2022-12-07T18:58:51;95921.00;;;4.10
33267;BMP180;19638;49.080;11.896;2022-12-07T19:03:27;95918.00;;;4.10
33267;BMP180;19638;49.080;11.896;2022-12-07T19:08:01;95915.00;;;4.00
33267;BMP180;19638;49.080;11.896;2022-12-07T19:12:10;95911.00;;;4.10
33267;BMP180;19638;49.080;11.896;2022-12-07T19:16:13;95911.00;;;4.00
33267;BMP180;19638;49.080;11.896;2022-12-07T19:20:16;95899.00;;;4.00
33267;BMP180;19638;49.080;11.896;2022-12-07T19:24:19;95900.00;;;4.00
33267;BMP180;19638;49.080;11.896;2022-12-07T19:28:59;95900.00;;;4.00
33267;BMP180;19638;49.080;11.896;2022-12-07T19:33:03;95907.00;;;4.00
33267;BMP180;19638;49.080;11.896;2022-12-07T19:37:06;95907.00;;;4.00
33267;BMP180;19638;49.080;11.896;2022-12-07T19:41:11;95909.00;;;4.00
33267;BMP180;19638;49.080;11.896;2022-12-07T19:45:46;95907.00;;;4.00
33267;BMP180;19638;49.080;11.896;2022-12-07T19:49:49;95901.00;;;4.00
33267;BMP180;19638;49.080;11.896;2022-12-07T19:54:27;95899.00;;;3.90
33267;BMP180;19638;49.080;11.896;2022-12-07T19:59:01;95896.00;;;3.90
33267;BMP180;19638;49.080;11.896;2022-12-07T20:08:16;95887.00;;;3.90
33267;BMP180;19638;49.080;11.896;2022-12-07T20:17:17;95882.00;;;3.80
33267;BMP180;19638;49.080;11.896;2022-12-07T20:21:21;95873.00;;;3.80
33267;BMP180;19638;49.080;11.896;2022-12-07T20:26:01;95870.00;;;3.80
33267;BMP180;19638;49.080;11.896;2022-12-07T20:30:06;95874.00;;;3.80
33267;BMP180;19638;49.080;11.896;2022-12-07T20:34:40;95865.00;;;3.80
33267;BMP180;19638;49.080;11.896;2022-12-07T20:39:18;95864.00;;;3.70
33267;BMP180;19638;49.080;11.896;2022-12-07T20:43:25;95870.00;;;3.70
33267;BMP180;19638;49.080;11.896;2022-12-07T20:47:59;95862.00;;;3.70
33267;BMP180;19638;49.080;11.896;2022-12-07T20:56:40;95862.00;;;3.70
33267;BMP180;19638;49.080;11.896;2022-12-07T21:00:44;95868.00;;;3.70
33267;BMP180;19638;49.080;11.896;2022-12-07T21:05:18;95858.00;;;3.60
33267;BMP180;19638;49.080;11.896;2022-12-07T21:09:23;95853.00;;;3.50
33267;BMP180;19638;49.080;11.896;2022-12-07T21:13:27;95845.00;;;3.40
33267;BMP180;19638;49.080;11.896;2022-12-07T21:17:32;95837.00;;;3.30
33267;BMP180;19638;49.080;11.896;2022-12-07T21:21:35;95843.00;;;3.20
33267;BMP180;19638;49.080;11.896;2022-12-07T21:25:38;95833.00;;;3.10
33267;BMP180;19638;49.080;11.896;2022-12-07T21:29:41;95845.00;;;3.10
33267;BMP180;19638;49.080;11.896;2022-12-07T21:33:49;95842.00;;;2.90
33267;BMP180;19638;49.080;11.896;2022-12-07T21:37:52;95833.00;;;2.90
33267;BMP180;19638;49.080;11.896;2022-12-07T21:42:29;95838.00;;;2.70
33267;BMP180;19638;49.080;11.896;2022-12-07T21:46:32;95829.00;;;2.60
33267;BMP180;19638;49.080;11.896;2022-12-07T21:50:37;95830.00;;;2.60
33267;BMP180;19638;49.080;11.896;2022-12-07T21:54:41;95825.00;;;2.60
33267;BMP180;19638;49.080;11.896;2022-12-07T21:58:45;95829.00;;;2.60
33267;BMP180;19638;49.080;11.896;2022-12-07T22:02:48;95824.00;;;2.60
33267;BMP180;19638;49.080;11.896;2022-12-07T22:07:27;95815.00;;;2.50
33267;BMP180;19638;49.080;11.896;2022-12-07T22:11:30;95811.00;;;2.50
33267;BMP180;19638;49.080;11.896;2022-12-07T22:15:33;95807.00;;;2.40
33267;BMP180;19638;49.080;11.896;2022-12-07T22:19:36;95809.00;;;2.30
33267;BMP180;19638;49.080;11.896;2022-12-07T22:23:41;95810.00;;;2.20
33267;BMP180;19638;49.080;11.896;2022-12-07T22:27:44;95807.00;;;2.20
33267;BMP180;19638;49.080;11.896;2022-12-07T22:31:47;95805.00;;;2.20
33267;BMP180;19638;49.080;11.896;2022-12-07T22:35:55;95799.00;;;2.10
33267;BMP180;19638;49.080;11.896;2022-12-07T22:40:30;95799.00;;;2.10
33267;BMP180;19638;49.080;11.896;2022-12-07T22:44:33;95800.00;;;2.10
33267;BMP180;19638;49.080;11.896;2022-12-07T22:48:36;95797.00;;;2.10
33267;BMP180;19638;49.080;11.896;2022-12-07T22:52:39;95789.00;;;2.10
33267;BMP180;19638;49.080;11.896;2022-12-07T22:56:44;95783.00;;;2.00
33267;BMP180;19638;49.080;11.896;2022-12-07T23:00:47;95772.00;;;2.10
33267;BMP180;19638;49.080;11.896;2022-12-07T23:04:50;95776.00;;;2.10
33267;BMP180;19638;49.080;11.896;2022-12-07T23:08:55;95774.00;;;2.00
33267;BMP180;19638;49.080;11.896;2022-12-07T23:13:00;95767.00;;;2.00
33267;BMP180;19638;49.080;11.896;2022-12-07T23:17:36;95771.00;;;1.90
33267;BMP180;19638;49.080;11.896;2022-12-07T23:21:39;95777.00;;;1.80
33267;BMP180;19638;49.080;11.896;2022-12-07T23:25:43;95770.00;;;1.70
33267;BMP180;19638;49.080;11.896;2022-12-07T23:29:48;95772.00;;;1.70
33267;BMP180;19638;49.080;11.896;2022-12-07T23:33:51;95776.00;;;1.60
33267;BMP180;19638;49.080;11.896;2022-12-07T23:37:54;95771.00;;;1.60
33267;BMP180;19638;49.080;11.896;2022-12-07T23:41:57;95765.00;;;1.60
33267;BMP180;19638;49.080;11.896;2022-12-07T23:46:02;95765.00;;;1.60
33267;BMP180;19638;49.080;11.896;2022-12-07T23:50:35;95758.00;;;1.60
33267;BMP180;19638;49.080;11.896;2022-12-07T23:54:39;95755.00;;;1.60
33267;BMP180;19638;49.080;11.896;2022-12-07T23:58:42;95749.00;;;1.70
